Time;durP1;ratioP1;P1;durP2;ratioP2;P2;SDS_P1;SDS_P2;PMS_P1;PMS_P2;Temp;Humidity;BMP_temperature;BMP_pressure;BME280_temperature;BME280_humidity;BME280_pressure;Samples;Min_cycle;Max_cycle;Signal;HPM_P1;HPM_P2
2022/01/15 00:01:02;;;;;;;40.87;9.80;;;2.50;95.80;;;;;;5069170;28;20204;-92
2022/01/15 00:03:28;;;;;;;42.83;9.80;;;2.50;95.80;;;;;;5074655;28;20195;-93
2022/01/15 00:05:57;;;;;;;32.67;9.37;;;2.40;95.80;;;;;;5071155;28;20180;-94
2022/01/15 00:08:23;;;;;;;33.37;9.70;;;2.40;95.80;;;;;;5077736;28;20168;-90
2022/01/15 00:10:49;;;;;;;35.73;9.53;;;2.40;95.70;;;;;;5061113;28;20240;-92
2022/01/15 00:13:26;;;;;;;32.67;9.57;;;2.40;95.80;;;;;;5068733;28;20180;-91
2022/01/15 00:16:03;;;;;;;39.53;10.60;;;2.40;95.80;;;;;;5074634;28;20197;-95
2022/01/15 00:18:41;;;;;;;46.00;10.53;;;2.50;95.80;;;;;;5073860;28;20154;-92
2022/01/15 00:21:08;;;;;;;53.57;12.03;;;2.60;95.90;;;;;;5075238;28;20183;-92
2022/01/15 00:23:34;;;;;;;37.37;10.13;;;2.80;95.90;;;;;;5073852;28;20187;-92
2022/01/15 00:26:00;;;;;;;54.40;10.67;;;2.80;95.90;;;;;;5063941;28;20187;-90
2022/01/15 00:28:25;;;;;;;39.47;9.53;;;2.80;95.90;;;;;;5054620;28;20172;-91
2022/01/15 00:30:51;;;;;;;41.53;10.40;;;2.80;95.80;;;;;;5053014;28;20184;-91
2022/01/15 00:33:17;;;;;;;41.10;10.30;;;2.80;95.80;;;;;;5052514;28;20180;-91
2022/01/15 00:35:42;;;;;;;36.47;9.90;;;2.80;95.80;;;;;;5052426;28;20549;-91
2022/01/15 00:38:08;;;;;;;53.87;10.27;;;2.70;95.80;;;;;;5053158;28;20559;-90
2022/01/15 00:40:34;;;;;;;48.40;10.47;;;2.80;95.80;;;;;;5052444;28;20204;-91
2022/01/15 00:42:59;;;;;;;50.83;10.70;;;2.80;95.80;;;;;;5052369;28;20226;-91
2022/01/15 00:45:29;;;;;;;48.13;12.40;;;2.80;95.90;;;;;;5052414;28;20194;-91
2022/01/15 00:47:55;;;;;;;56.47;10.90;;;2.90;95.90;;;;;;5052446;28;20691;-91
2022/01/15 00:50:21;;;;;;;41.37;11.73;;;2.90;95.90;;;;;;5052452;28;20270;-91
2022/01/15 00:52:47;;;;;;;37.37;10.23;;;2.90;95.90;;;;;;5056369;28;20188;-90
2022/01/15 00:55:14;;;;;;;42.30;11.73;;;3.10;95.90;;;;;;5056594;28;20182;-91
2022/01/15 00:57:40;;;;;;;50.67;10.67;;;3.10;95.80;;;;;;5056443;28;20196;-91
2022/01/15 01:00:13;;;;;;;44.73;9.80;;;3.00;95.80;;;;;;5057342;28;20196;-91
2022/01/15 01:02:42;;;;;;;45.50;10.47;;;3.00;95.80;;;;;;5056248;28;20675;-91
2022/01/15 01:05:09;;;;;;;38.97;9.43;;;3.00;95.80;;;;;;5061671;28;20172;-91
2022/01/15 01:07:43;;;;;;;47.17;10.57;;;3.10;95.80;;;;;;5075407;28;20196;-92
2022/01/15 01:23:10;;;;;;;52.30;10.47;;;3.20;95.60;;;;;;5058210;28;20160;-91
2022/01/15 01:25:43;;;;;;;42.40;10.80;;;3.20;95.60;;;;;;5055843;28;20548;-90
2022/01/15 01:28:14;;;;;;;47.83;10.00;;;3.30;95.60;;;;;;5056338;28;20192;-91
2022/01/15 01:30:50;;;;;;;44.03;9.60;;;3.20;95.50;;;;;;5064479;28;20651;-92
2022/01/15 01:33:32;;;;;;;54.43;9.80;;;3.30;95.50;;;;;;5062824;28;20246;-92
2022/01/15 01:41:16;;;;;;;44.23;9.67;;;3.30;95.30;;;;;;5057492;28;20184;-91
2022/01/15 01:46:22;;;;;;;40.63;9.23;;;3.30;95.20;;;;;;5057776;28;20192;-91
2022/01/15 01:48:48;;;;;;;47.03;9.23;;;3.40;95.20;;;;;;5055833;28;20192;-91
2022/01/15 01:51:25;;;;;;;52.50;8.17;;;3.50;95.20;;;;;;5056015;28;20551;-91
2022/01/15 01:53:52;;;;;;;41.33;8.37;;;3.50;95.10;;;;;;5056231;28;20187;-91
2022/01/15 01:56:19;;;;;;;48.13;9.50;;;3.40;95.00;;;;;;5056319;28;20188;-92
2022/01/15 01:58:46;;;;;;;52.23;8.70;;;3.40;94.90;;;;;;5056505;28;20726;-91
2022/01/15 02:01:11;;;;;;;39.33;9.10;;;3.50;94.80;;;;;;5060183;28;20208;-91
2022/01/15 02:03:37;;;;;;;32.50;7.13;;;3.50;94.60;;;;;;5062111;28;20195;-91
2022/01/15 02:06:03;;;;;;;45.17;7.53;;;3.60;94.40;;;;;;5063205;28;20172;-92
2022/01/15 02:08:32;;;;;;;46.10;7.80;;;3.60;94.30;;;;;;5063627;28;20172;-92
2022/01/15 02:11:00;;;;;;;38.27;7.43;;;3.70;94.00;;;;;;5063341;28;20179;-93
2022/01/15 02:13:26;;;;;;;42.17;8.80;;;3.60;93.80;;;;;;5064932;28;20277;-92
2022/01/15 02:15:51;;;;;;;32.37;7.03;;;3.60;93.70;;;;;;5065286;28;20211;-92
2022/01/15 02:18:18;;;;;;;39.80;8.50;;;3.60;93.60;;;;;;5065081;28;20177;-91
2022/01/15 02:25:59;;;;;;;33.73;7.43;;;3.50;93.60;;;;;;5065683;28;20174;-92
2022/01/15 02:28:36;;;;;;;36.93;7.83;;;3.40;93.60;;;;;;5064474;28;20644;-91
2022/01/15 02:31:05;;;;;;;37.37;8.27;;;3.40;93.70;;;;;;5065786;28;20168;-92
2022/01/15 02:33:31;;;;;;;35.93;8.57;;;3.40;93.80;;;;;;5066463;28;20187;-91
2022/01/15 02:35:58;;;;;;;36.17;8.07;;;3.50;93.80;;;;;;5066296;28;20270;-92
2022/01/15 02:38:24;;;;;;;26.10;7.43;;;3.40;93.80;;;;;;5065439;28;20176;-92
2022/01/15 02:40:50;;;;;;;30.23;8.30;;;3.40;93.80;;;;;;5065982;28;20207;-91
2022/01/15 02:43:19;;;;;;;31.90;8.60;;;3.40;93.90;;;;;;5065219;28;20271;-92
2022/01/15 02:45:55;;;;;;;36.97;9.10;;;3.40;93.90;;;;;;5065496;28;20254;-92
2022/01/15 02:48:25;;;;;;;35.60;8.37;;;3.40;94.00;;;;;;5065835;28;20217;-90
2022/01/15 02:50:51;;;;;;;38.57;8.23;;;3.40;94.00;;;;;;5065527;28;20179;-93
2022/01/15 02:53:17;;;;;;;32.23;7.60;;;3.40;94.00;;;;;;5065424;28;20186;-92
2022/01/15 02:55:45;;;;;;;29.47;8.63;;;3.50;94.10;;;;;;5064650;28;20187;-92
2022/01/15 02:58:11;;;;;;;30.33;7.90;;;3.50;94.10;;;;;;5065139;28;20185;-92
2022/01/15 03:00:37;;;;;;;30.17;9.03;;;3.50;94.10;;;;;;5064539;28;20238;-92
2022/01/15 03:03:03;;;;;;;36.77;8.27;;;3.40;94.10;;;;;;5065745;28;20177;-91
2022/01/15 03:05:29;;;;;;;41.27;7.77;;;3.50;94.10;;;;;;5065325;28;20183;-91
2022/01/15 03:07:54;;;;;;;33.47;8.70;;;3.50;94.10;;;;;;5065475;28;20196;-92
2022/01/15 03:10:20;;;;;;;27.00;7.67;;;3.40;94.10;;;;;;5065264;28;20245;-91
2022/01/15 03:12:46;;;;;;;31.20;7.53;;;3.50;94.00;;;;;;5064548;28;20178;-91
2022/01/15 03:15:18;;;;;;;36.63;8.10;;;3.50;94.00;;;;;;5062881;28;20181;-92
2022/01/15 03:17:43;;;;;;;32.80;8.80;;;3.50;93.90;;;;;;5063476;28;20196;-91
2022/01/15 03:20:10;;;;;;;37.67;7.37;;;3.50;93.80;;;;;;5064584;28;20203;-91
2022/01/15 03:22:35;;;;;;;30.80;7.20;;;3.50;93.80;;;;;;5063721;28;20177;-92
2022/01/15 03:25:01;;;;;;;47.93;7.77;;;3.50;93.50;;;;;;5064596;28;20244;-92
2022/01/15 03:27:27;;;;;;;27.30;7.27;;;3.50;93.40;;;;;;5063813;28;20203;-91
2022/01/15 03:29:53;;;;;;;40.67;8.03;;;3.50;93.30;;;;;;5063898;28;20185;-93
2022/01/15 03:32:21;;;;;;;32.47;8.70;;;3.50;93.20;;;;;;5064076;28;20201;-92
2022/01/15 03:34:47;;;;;;;28.43;9.17;;;3.40;93.20;;;;;;5065162;28;20186;-92
2022/01/15 03:37:22;;;;;;;21.53;8.00;;;3.50;93.30;;;;;;5081361;28;20550;-91
2022/01/15 03:39:47;;;;;;;34.60;8.33;;;3.40;93.30;;;;;;5081028;28;20536;-92
2022/01/15 03:42:13;;;;;;;35.23;8.13;;;3.40;93.40;;;;;;5080658;28;20175;-92
2022/01/15 03:44:44;;;;;;;31.03;8.03;;;3.40;93.50;;;;;;5081485;28;20236;-91
2022/01/15 03:47:11;;;;;;;34.07;9.27;;;3.40;93.50;;;;;;5080632;28;20202;-92
2022/01/15 03:49:38;;;;;;;28.80;8.03;;;3.40;93.60;;;;;;5081675;28;20184;-91
2022/01/15 03:52:05;;;;;;;29.90;8.50;;;3.50;93.70;;;;;;5080831;28;20187;-91
2022/01/15 03:54:32;;;;;;;35.83;9.43;;;3.40;93.70;;;;;;5081126;28;20177;-91
2022/01/15 03:56:57;;;;;;;36.47;8.87;;;3.40;93.70;;;;;;5081201;28;20207;-91
2022/01/15 03:59:23;;;;;;;26.43;7.40;;;3.40;93.80;;;;;;5081806;28;20558;-91
2022/01/15 04:01:49;;;;;;;34.10;8.60;;;3.40;93.80;;;;;;5081160;28;20187;-91
2022/01/15 04:04:16;;;;;;;31.50;8.57;;;3.50;93.80;;;;;;5081074;28;20179;-91
2022/01/15 04:06:41;;;;;;;33.43;8.17;;;3.40;93.80;;;;;;5081302;28;20224;-91
2022/01/15 04:09:07;;;;;;;37.17;9.57;;;3.40;93.80;;;;;;5081477;28;20189;-91
2022/01/15 04:11:34;;;;;;;28.60;9.57;;;3.50;93.80;;;;;;5080825;28;20196;-91
2022/01/15 04:14:00;;;;;;;41.00;9.00;;;3.40;93.80;;;;;;5080496;28;20175;-91
2022/01/15 04:16:28;;;;;;;37.30;10.03;;;3.40;93.90;;;;;;5080104;28;20229;-91
2022/01/15 04:18:54;;;;;;;27.10;8.87;;;3.30;93.90;;;;;;5079495;28;20175;-91
2022/01/15 04:21:19;;;;;;;33.27;9.90;;;3.40;93.90;;;;;;5081084;28;20202;-92
2022/01/15 04:23:45;;;;;;;34.00;9.13;;;3.40;93.90;;;;;;5080139;28;20210;-92
2022/01/15 04:26:11;;;;;;;24.73;9.60;;;3.30;93.90;;;;;;5079757;28;20199;-92
2022/01/15 04:28:36;;;;;;;37.13;9.83;;;3.30;93.90;;;;;;5079672;28;20184;-91
2022/01/15 04:31:06;;;;;;;28.57;9.20;;;3.30;93.90;;;;;;5080494;28;20180;-91
2022/01/15 04:33:37;;;;;;;36.63;9.63;;;3.30;93.90;;;;;;5080656;28;20190;-91
2022/01/15 04:36:07;;;;;;;29.40;9.77;;;3.30;93.90;;;;;;5080874;28;20310;-91
2022/01/15 04:38:37;;;;;;;31.30;9.57;;;3.30;94.00;;;;;;5080673;28;20184;-91
2022/01/15 04:41:04;;;;;;;36.23;9.57;;;3.30;93.90;;;;;;5080292;28;20171;-92
2022/01/15 04:43:30;;;;;;;28.97;9.30;;;3.30;93.90;;;;;;5080342;28;20186;-91
2022/01/15 04:45:56;;;;;;;22.17;9.80;;;3.30;93.90;;;;;;5079715;28;20187;-91
2022/01/15 04:48:22;;;;;;;32.27;10.27;;;3.30;94.00;;;;;;5068421;28;20234;-92
2022/01/15 04:50:48;;;;;;;32.97;10.40;;;3.30;94.00;;;;;;5067079;28;20176;-92
2022/01/15 04:53:14;;;;;;;36.50;11.30;;;3.30;94.00;;;;;;5067721;28;20190;-92
2022/01/15 04:55:40;;;;;;;24.60;11.63;;;3.30;94.00;;;;;;5067252;28;20267;-90
2022/01/15 04:58:07;;;;;;;24.63;11.33;;;3.20;94.00;;;;;;5067105;28;20214;-91
2022/01/15 05:00:33;;;;;;;27.93;11.43;;;3.20;94.10;;;;;;5066327;28;20176;-91
2022/01/15 05:02:59;;;;;;;31.17;12.30;;;3.20;94.10;;;;;;5066726;28;20215;-91
2022/01/15 05:05:26;;;;;;;33.43;13.40;;;3.20;94.20;;;;;;5065536;28;20180;-92
2022/01/15 05:07:52;;;;;;;32.83;13.00;;;3.20;94.30;;;;;;5066166;28;20295;-93
2022/01/15 05:10:24;;;;;;;33.20;14.10;;;3.20;94.30;;;;;;5066141;28;20188;-91
2022/01/15 05:12:50;;;;;;;33.73;14.30;;;3.10;94.40;;;;;;5065856;28;20171;-91
2022/01/15 05:15:18;;;;;;;34.50;14.63;;;3.10;94.40;;;;;;5066579;28;20196;-90
2022/01/15 05:17:47;;;;;;;43.80;15.07;;;3.20;94.50;;;;;;5066459;28;20255;-91
2022/01/15 05:20:18;;;;;;;36.43;14.03;;;3.20;94.50;;;;;;5066984;28;20263;-90
2022/01/15 05:22:45;;;;;;;42.03;15.63;;;3.10;94.50;;;;;;5066273;28;20252;-92
2022/01/15 05:25:16;;;;;;;29.03;13.87;;;3.10;94.50;;;;;;5066816;28;20172;-90
2022/01/15 05:27:44;;;;;;;37.03;14.60;;;3.10;94.50;;;;;;5065444;28;20195;-90
2022/01/15 05:30:11;;;;;;;47.00;14.63;;;3.20;94.60;;;;;;5065564;28;20253;-91
2022/01/15 05:32:38;;;;;;;27.77;14.20;;;3.10;94.60;;;;;;5065145;28;20201;-90
2022/01/15 05:35:04;;;;;;;35.13;15.00;;;3.10;94.70;;;;;;5063414;28;20172;-92
2022/01/15 05:37:30;;;;;;;34.13;15.80;;;3.20;94.70;;;;;;5064314;28;20206;-91
2022/01/15 05:39:56;;;;;;;33.63;16.00;;;3.10;94.70;;;;;;5063881;28;20271;-92
2022/01/15 05:42:22;;;;;;;47.53;16.73;;;3.10;94.70;;;;;;5064918;28;20182;-91
2022/01/15 05:44:48;;;;;;;32.93;15.03;;;3.10;94.80;;;;;;5065726;28;20177;-91
2022/01/15 05:47:14;;;;;;;30.93;14.53;;;3.10;94.70;;;;;;5065207;28;20693;-91
2022/01/15 05:49:40;;;;;;;35.90;15.13;;;3.10;94.70;;;;;;5065306;28;20636;-90
2022/01/15 05:52:06;;;;;;;41.03;16.03;;;3.00;94.70;;;;;;5064466;28;20186;-92
2022/01/15 05:54:31;;;;;;;34.10;15.80;;;3.00;94.70;;;;;;5064229;28;20284;-91
2022/01/15 05:56:57;;;;;;;42.20;17.00;;;3.00;94.80;;;;;;5063423;28;20231;-90
2022/01/15 05:59:23;;;;;;;31.07;15.73;;;3.00;94.80;;;;;;5062381;28;20183;-90
2022/01/15 06:01:49;;;;;;;36.77;16.87;;;2.90;94.80;;;;;;5063987;28;20171;-92
2022/01/15 06:04:14;;;;;;;35.07;16.20;;;2.90;94.80;;;;;;5063437;28;20190;-91
2022/01/15 06:06:40;;;;;;;32.57;16.70;;;2.90;94.80;;;;;;5062664;28;20220;-92
2022/01/15 06:09:06;;;;;;;34.97;16.17;;;2.90;94.90;;;;;;5062510;28;20187;-92
2022/01/15 06:11:34;;;;;;;35.97;17.17;;;2.90;94.90;;;;;;5062962;28;20220;-92
2022/01/15 06:14:00;;;;;;;41.33;16.57;;;2.90;95.00;;;;;;5062504;28;20188;-92
2022/01/15 06:16:26;;;;;;;36.47;16.60;;;2.80;94.90;;;;;;5063186;28;20216;-91
2022/01/15 06:18:52;;;;;;;33.17;15.83;;;2.90;95.00;;;;;;5063357;28;20528;-90
2022/01/15 06:21:17;;;;;;;33.30;15.93;;;2.90;95.00;;;;;;5062337;28;20186;-91
2022/01/15 06:23:43;;;;;;;29.33;14.80;;;2.80;95.00;;;;;;5064167;28;20191;-92
2022/01/15 06:26:09;;;;;;;34.07;15.77;;;2.80;95.00;;;;;;5059481;28;20210;-91
2022/01/15 06:28:35;;;;;;;29.87;14.10;;;2.80;95.00;;;;;;5055645;28;20198;-92
2022/01/15 06:31:00;;;;;;;29.17;13.80;;;2.80;95.00;;;;;;5055966;28;20275;-91
2022/01/15 06:33:26;;;;;;;33.47;15.63;;;2.80;95.00;;;;;;5054884;28;20214;-91
2022/01/15 06:35:52;;;;;;;30.47;13.57;;;2.80;95.10;;;;;;5054254;28;20259;-90
2022/01/15 06:38:18;;;;;;;30.40;13.57;;;2.70;95.00;;;;;;5054315;28;20174;-91
2022/01/15 06:40:43;;;;;;;26.70;14.43;;;2.80;95.10;;;;;;5054701;28;20182;-90
2022/01/15 06:43:10;;;;;;;31.93;13.97;;;2.70;95.10;;;;;;5055036;28;20202;-91
2022/01/15 06:45:35;;;;;;;31.47;13.87;;;2.80;95.10;;;;;;5054542;28;20590;-91
2022/01/15 06:48:02;;;;;;;24.23;12.93;;;2.80;95.20;;;;;;5054626;28;20225;-91
2022/01/15 06:50:29;;;;;;;31.90;13.63;;;2.80;95.10;;;;;;5054201;28;20597;-91
2022/01/15 06:52:55;;;;;;;28.07;14.37;;;2.80;95.20;;;;;;5055308;28;20222;-92
2022/01/15 06:55:20;;;;;;;31.07;12.90;;;2.70;95.20;;;;;;5054691;28;20204;-91
2022/01/15 06:57:46;;;;;;;29.03;12.97;;;2.80;95.20;;;;;;5055234;28;20227;-92
2022/01/15 07:00:13;;;;;;;26.83;13.13;;;2.80;95.20;;;;;;5061312;28;20183;-91
2022/01/15 07:02:40;;;;;;;20.73;12.67;;;2.80;95.20;;;;;;5062178;28;20551;-91
2022/01/15 07:05:07;;;;;;;31.13;12.60;;;2.80;95.20;;;;;;5062181;28;20171;-91
2022/01/15 07:07:33;;;;;;;26.50;12.23;;;2.80;95.10;;;;;;5061707;28;20605;-91
2022/01/15 07:09:59;;;;;;;24.80;12.27;;;2.70;95.10;;;;;;5062197;28;20203;-91
2022/01/15 07:12:24;;;;;;;24.67;11.23;;;2.80;95.10;;;;;;5062069;28;20670;-91
2022/01/15 07:14:51;;;;;;;23.80;11.60;;;2.70;95.10;;;;;;5061965;28;20173;-91
2022/01/15 07:17:16;;;;;;;25.20;11.80;;;2.70;95.10;;;;;;5062034;28;20204;-91
2022/01/15 07:19:42;;;;;;;29.63;11.93;;;2.70;95.10;;;;;;5061758;28;20188;-91
2022/01/15 07:22:08;;;;;;;29.23;11.00;;;2.60;95.00;;;;;;5061403;28;20601;-91
2022/01/15 07:24:34;;;;;;;28.03;12.43;;;2.70;95.10;;;;;;5062277;28;20180;-91
2022/01/15 07:26:59;;;;;;;30.23;11.20;;;2.70;95.10;;;;;;5062430;28;20205;-92
2022/01/15 07:29:25;;;;;;;19.10;9.93;;;2.80;95.10;;;;;;5063013;28;20205;-92
2022/01/15 07:31:52;;;;;;;21.20;10.67;;;2.80;95.10;;;;;;5062660;28;20725;-91
2022/01/15 07:34:19;;;;;;;24.80;12.37;;;2.80;95.00;;;;;;5062423;28;20180;-91
2022/01/15 07:36:54;;;;;;;15.20;9.50;;;2.80;95.00;;;;;;5062084;28;20219;-92
2022/01/15 07:39:20;;;;;;;20.23;10.57;;;2.80;95.00;;;;;;5062264;28;20195;-92
2022/01/15 07:41:46;;;;;;;17.13;10.03;;;2.80;95.00;;;;;;5063382;28;20172;-92
2022/01/15 07:44:12;;;;;;;24.20;11.17;;;2.90;95.00;;;;;;5062789;28;20202;-92
2022/01/15 07:46:38;;;;;;;20.40;11.33;;;2.80;94.90;;;;;;5061995;28;20595;-92
2022/01/15 07:49:03;;;;;;;16.63;11.50;;;2.80;94.90;;;;;;5062974;28;20177;-92
2022/01/15 07:51:29;;;;;;;21.80;12.17;;;2.70;94.80;;;;;;5061614;28;20207;-92
2022/01/15 07:53:55;;;;;;;23.07;12.00;;;2.70;94.80;;;;;;5062262;28;20244;-92
2022/01/15 07:56:21;;;;;;;16.20;11.97;;;2.60;94.80;;;;;;5057102;28;20211;-91
2022/01/15 07:58:47;;;;;;;20.57;13.23;;;2.60;94.70;;;;;;5056390;28;20187;-91
2022/01/15 08:01:13;;;;;;;18.50;10.87;;;2.60;94.80;;;;;;5057214;28;20179;-92
2022/01/15 08:03:40;;;;;;;15.93;12.27;;;2.60;94.70;;;;;;5056896;28;20215;-91
2022/01/15 08:06:06;;;;;;;23.37;12.03;;;2.50;94.70;;;;;;5059798;28;20680;-91
2022/01/15 08:08:33;;;;;;;17.60;12.20;;;2.50;94.80;;;;;;5066013;28;20644;-92
2022/01/15 08:10:59;;;;;;;20.57;11.83;;;2.60;94.80;;;;;;5069835;28;20210;-93
2022/01/15 08:13:25;;;;;;;21.90;10.43;;;2.60;94.80;;;;;;5069369;28;20199;-92
2022/01/15 08:15:55;;;;;;;14.47;10.87;;;2.60;94.80;;;;;;5067094;28;20180;-93
2022/01/15 08:18:21;;;;;;;18.77;11.97;;;2.60;94.70;;;;;;5073385;28;20191;-92
2022/01/15 08:20:48;;;;;;;18.93;11.40;;;2.50;94.70;;;;;;5073870;28;20156;-92
2022/01/15 08:23:14;;;;;;;15.43;11.07;;;2.50;94.70;;;;;;5076378;28;20148;-92
2022/01/15 08:25:42;;;;;;;15.23;9.77;;;2.50;94.70;;;;;;5078412;28;20211;-92
2022/01/15 08:28:08;;;;;;;23.40;10.60;;;2.50;94.70;;;;;;5075232;28;20195;-92
2022/01/15 08:30:34;;;;;;;14.43;10.37;;;2.40;94.60;;;;;;5072958;28;20188;-92
2022/01/15 08:33:00;;;;;;;15.07;10.40;;;2.40;94.70;;;;;;5075702;28;20168;-93
2022/01/15 08:35:26;;;;;;;18.03;10.30;;;2.40;94.90;;;;;;5077933;28;20203;-92
2022/01/15 08:37:54;;;;;;;17.77;10.57;;;2.40;94.90;;;;;;5077324;28;20195;-92
2022/01/15 09:19:49;;;;;;;18.57;9.13;;;2.90;95.40;;;;;;1535894;22;20522;-95
2022/01/15 09:22:15;;;;;;;20.23;9.27;;;2.90;95.40;;;;;;5034707;28;20206;-93
2022/01/15 11:43:33;;;;;;;21.47;7.03;;;5.70;90.50;;;;;;5041855;28;20212;-94
2022/01/15 11:46:04;;;;;;;18.17;6.67;;;5.70;90.30;;;;;;5048664;28;20182;-93
2022/01/15 11:48:35;;;;;;;19.97;7.40;;;5.60;90.20;;;;;;5045810;28;20183;-94
2022/01/15 11:51:17;;;;;;;21.43;7.63;;;5.80;90.10;;;;;;5038322;28;20217;-93
2022/01/15 11:54:00;;;;;;;15.93;6.73;;;5.60;89.90;;;;;;5034623;28;20235;-91
2022/01/15 11:56:46;;;;;;;18.43;7.03;;;5.80;90.00;;;;;;5034149;28;20214;-91
2022/01/15 11:59:27;;;;;;;17.50;7.80;;;6.00;90.20;;;;;;5046910;28;20189;-93
2022/01/15 12:01:55;;;;;;;23.20;7.50;;;6.10;90.10;;;;;;5050279;28;20195;-93
2022/01/15 12:04:39;;;;;;;19.80;7.17;;;6.10;88.90;;;;;;5047158;28;20177;-93
2022/01/15 12:07:05;;;;;;;18.63;5.77;;;6.20;89.10;;;;;;5049561;28;20710;-92
2022/01/15 12:09:45;;;;;;;20.63;6.97;;;6.10;88.50;;;;;;5046542;28;20185;-91
2022/01/15 12:12:21;;;;;;;19.37;6.87;;;6.20;88.90;;;;;;5043529;28;20246;-91
2022/01/15 12:14:54;;;;;;;22.17;6.83;;;6.30;88.70;;;;;;5047380;28;20230;-92
2022/01/15 12:17:46;;;;;;;20.90;7.67;;;6.30;88.60;;;;;;5050057;28;20207;-92
2022/01/15 12:20:18;;;;;;;16.93;6.70;;;6.30;88.60;;;;;;5049919;28;20580;-91
2022/01/15 12:22:47;;;;;;;17.83;7.13;;;6.50;88.60;;;;;;5049000;28;20193;-92
2022/01/15 12:25:30;;;;;;;19.27;7.17;;;6.50;88.40;;;;;;5041163;28;20173;-92
2022/01/15 12:28:00;;;;;;;23.27;6.87;;;6.70;88.40;;;;;;5045124;28;20200;-92
2022/01/15 12:30:29;;;;;;;18.23;6.80;;;6.90;88.10;;;;;;5045726;28;20173;-92
2022/01/15 12:33:00;;;;;;;16.90;6.33;;;7.10;87.30;;;;;;5044792;28;20603;-93
2022/01/15 12:35:29;;;;;;;28.43;7.23;;;6.90;87.30;;;;;;5047872;28;20168;-92
2022/01/15 12:38:10;;;;;;;21.40;6.73;;;7.10;86.10;;;;;;5052479;28;20208;-91
2022/01/15 12:40:45;;;;;;;21.07;6.27;;;7.00;86.40;;;;;;5051697;28;20169;-92
2022/01/15 12:43:17;;;;;;;20.17;6.30;;;6.60;86.10;;;;;;5047974;28;20555;-91
2022/01/15 12:45:46;;;;;;;32.57;8.33;;;6.80;85.80;;;;;;5051115;28;20230;-92
2022/01/15 12:48:18;;;;;;;23.37;5.20;;;6.70;85.30;;;;;;5044087;28;20181;-92
2022/01/15 12:50:51;;;;;;;25.37;5.90;;;6.60;84.60;;;;;;5051929;28;20247;-93
2022/01/15 12:53:22;;;;;;;25.77;6.67;;;6.70;85.70;;;;;;5050729;28;20180;-93
2022/01/15 12:55:49;;;;;;;29.83;7.03;;;6.80;85.40;;;;;;5049626;28;20196;-92
2022/01/15 12:58:18;;;;;;;22.10;6.27;;;7.00;86.10;;;;;;5051269;28;20177;-93
2022/01/15 13:00:45;;;;;;;22.10;6.43;;;6.70;84.80;;;;;;5048616;28;20177;-93
2022/01/15 13:03:13;;;;;;;34.73;6.53;;;6.80;85.90;;;;;;5046434;28;20169;-93
2022/01/15 13:05:42;;;;;;;19.23;6.57;;;6.90;85.10;;;;;;5047734;28;20177;-93
2022/01/15 13:08:22;;;;;;;27.07;5.80;;;6.90;85.40;;;;;;5046556;28;20287;-93
2022/01/15 13:11:07;;;;;;;21.63;6.37;;;6.90;86.00;;;;;;5041067;28;20175;-94
2022/01/15 13:13:35;;;;;;;24.80;6.20;;;6.90;85.60;;;;;;5044159;28;20637;-92
2022/01/15 13:16:06;;;;;;;22.07;5.73;;;6.70;85.30;;;;;;5042949;28;20231;-92
2022/01/15 13:18:36;;;;;;;23.87;5.50;;;6.50;85.90;;;;;;5042868;28;20624;-92
2022/01/15 13:21:17;;;;;;;18.80;6.00;;;6.50;86.40;;;;;;5042258;28;20173;-93
2022/01/15 13:23:50;;;;;;;21.27;5.63;;;6.60;87.20;;;;;;5041335;28;20184;-93
2022/01/15 13:26:26;;;;;;;20.63;6.60;;;6.70;87.00;;;;;;5041215;28;20200;-92
2022/01/15 13:28:54;;;;;;;14.63;5.47;;;6.70;87.00;;;;;;5041869;28;20207;-91
2022/01/15 13:31:20;;;;;;;21.87;5.87;;;6.50;87.00;;;;;;5039090;28;20176;-91
2022/01/15 13:33:46;;;;;;;23.50;6.37;;;6.30;87.60;;;;;;5038474;28;20176;-92
2022/01/15 13:36:18;;;;;;;18.10;6.07;;;6.30;87.90;;;;;;5039547;28;20646;-93
2022/01/15 13:38:45;;;;;;;15.73;6.87;;;6.00;88.30;;;;;;5040169;28;20222;-91
2022/01/15 13:41:21;;;;;;;18.87;5.33;;;5.80;88.70;;;;;;5041725;28;20199;-90
2022/01/15 13:43:54;;;;;;;23.53;7.43;;;5.60;88.80;;;;;;5042030;28;20189;-92
2022/01/15 13:46:31;;;;;;;14.90;6.60;;;5.50;89.30;;;;;;5040751;28;20204;-91
2022/01/15 13:49:24;;;;;;;15.50;6.70;;;5.20;89.90;;;;;;5040885;28;20175;-92
2022/01/15 13:54:38;;;;;;;17.40;6.83;;;4.80;91.20;;;;;;5039018;28;20237;-92
2022/01/15 13:57:07;;;;;;;14.17;6.83;;;4.60;91.70;;;;;;5038653;28;20210;-93
2022/01/15 13:59:33;;;;;;;26.73;8.70;;;4.50;92.00;;;;;;5038392;28;20671;-94
2022/01/15 14:02:01;;;;;;;19.53;8.00;;;4.40;92.10;;;;;;5036542;28;20179;-90
2022/01/15 14:04:34;;;;;;;17.00;7.13;;;4.40;92.40;;;;;;5037407;28;20173;-91
2022/01/15 14:07:08;;;;;;;20.97;7.67;;;4.40;92.50;;;;;;5091108;22;20241;-94
2022/01/15 14:09:36;;;;;;;17.20;6.50;;;4.30;92.50;;;;;;5030569;28;20182;-94
2022/01/15 14:12:11;;;;;;;18.10;8.17;;;4.20;92.50;;;;;;5040532;28;20159;-92
2022/01/15 14:15:03;;;;;;;13.33;6.93;;;4.30;92.80;;;;;;5023385;28;20547;-92
2022/01/15 14:17:30;;;;;;;15.37;5.43;;;4.20;92.70;;;;;;5027897;28;20213;-92
2022/01/15 14:22:29;;;;;;;14.90;7.17;;;3.90;93.10;;;;;;5059608;22;20234;-92
2022/01/15 14:25:10;;;;;;;18.90;8.60;;;3.90;93.10;;;;;;5034374;28;20236;-92
2022/01/15 14:27:36;;;;;;;21.73;9.40;;;3.80;93.60;;;;;;5017631;28;20172;-92
2022/01/15 14:30:04;;;;;;;18.07;8.03;;;3.80;93.70;;;;;;5016607;28;20177;-92
2022/01/15 14:32:30;;;;;;;21.90;9.53;;;3.70;93.80;;;;;;5016460;28;20206;-91
2022/01/15 14:34:57;;;;;;;26.87;8.50;;;3.70;94.00;;;;;;5016804;28;20223;-91
2022/01/15 14:37:24;;;;;;;23.77;10.23;;;3.70;94.10;;;;;;5016879;28;20201;-91
2022/01/15 14:39:53;;;;;;;21.37;10.63;;;3.80;94.30;;;;;;5016731;28;20265;-90
2022/01/15 14:42:19;;;;;;;23.77;11.57;;;3.80;94.40;;;;;;5016389;28;20207;-91
2022/01/15 14:44:45;;;;;;;26.53;11.83;;;3.80;94.50;;;;;;5016413;28;20172;-91
2022/01/15 14:47:11;;;;;;;33.60;11.03;;;3.70;94.40;;;;;;5034056;28;20172;-91
2022/01/15 14:49:37;;;;;;;29.90;10.83;;;3.70;94.70;;;;;;5017115;28;20629;-91
2022/01/15 14:52:03;;;;;;;22.13;10.90;;;3.70;94.70;;;;;;5033857;28;20196;-91
2022/01/15 14:54:29;;;;;;;21.97;8.53;;;3.60;94.80;;;;;;5033832;28;20279;-91
2022/01/15 14:56:55;;;;;;;23.70;10.77;;;3.70;94.90;;;;;;5016150;28;20208;-91
2022/01/15 14:59:21;;;;;;;29.73;12.00;;;3.50;94.80;;;;;;5033788;28;20169;-91
2022/01/15 15:01:47;;;;;;;24.47;10.77;;;3.50;94.90;;;;;;5015985;28;20199;-91
2022/01/15 15:04:13;;;;;;;30.17;12.50;;;3.50;94.90;;;;;;5016080;28;20264;-91
2022/01/15 15:06:39;;;;;;;32.23;13.83;;;3.50;94.90;;;;;;5033731;28;20633;-91
2022/01/15 15:09:06;;;;;;;34.30;12.43;;;3.60;94.90;;;;;;5016003;28;20303;-91
2022/01/15 15:11:33;;;;;;;29.23;12.20;;;3.60;94.90;;;;;;5016045;28;20196;-91
2022/01/15 15:13:58;;;;;;;32.90;13.53;;;3.70;94.90;;;;;;5016074;28;20651;-92
2022/01/15 15:16:24;;;;;;;29.83;12.33;;;3.70;94.80;;;;;;5033627;28;20276;-91
2022/01/15 15:18:50;;;;;;;32.60;13.43;;;3.70;94.70;;;;;;5033598;28;20175;-91
2022/01/15 15:21:17;;;;;;;30.90;12.17;;;3.80;94.60;;;;;;5015671;28;20227;-91
2022/01/15 15:23:43;;;;;;;37.03;14.07;;;3.80;94.50;;;;;;5015683;28;20263;-91
2022/01/15 15:26:08;;;;;;;43.47;15.43;;;3.80;94.30;;;;;;5015750;28;20347;-91
2022/01/15 15:28:34;;;;;;;40.13;14.30;;;3.80;94.20;;;;;;5033320;28;20271;-91
2022/01/15 15:31:01;;;;;;;41.13;14.47;;;3.80;94.20;;;;;;5033111;28;20212;-91
2022/01/15 15:33:28;;;;;;;42.60;14.53;;;3.80;94.10;;;;;;5033324;28;20176;-91
2022/01/15 15:35:54;;;;;;;42.20;14.13;;;3.80;94.10;;;;;;5033697;28;20216;-91
2022/01/15 15:38:19;;;;;;;40.97;14.10;;;3.80;94.00;;;;;;5033360;28;20196;-91
2022/01/15 15:40:47;;;;;;;30.47;14.00;;;3.80;93.90;;;;;;5015677;28;20224;-92
2022/01/15 15:43:14;;;;;;;29.87;12.53;;;3.90;94.00;;;;;;5033298;28;20208;-92
2022/01/15 15:45:40;;;;;;;33.30;14.17;;;4.00;93.90;;;;;;5033191;28;20180;-92
2022/01/15 15:48:06;;;;;;;42.87;17.77;;;4.00;93.90;;;;;;5015506;28;20177;-92
2022/01/15 15:50:32;;;;;;;41.77;17.47;;;4.00;93.80;;;;;;5015359;28;20179;-92
2022/01/15 15:52:58;;;;;;;38.80;16.33;;;4.00;93.70;;;;;;5015405;28;20272;-92
2022/01/15 15:55:23;;;;;;;35.87;16.80;;;4.00;93.70;;;;;;5015513;28;20633;-92
2022/01/15 15:57:49;;;;;;;31.17;13.93;;;4.00;93.70;;;;;;5015398;28;20202;-92
2022/01/15 16:00:16;;;;;;;29.20;13.90;;;3.90;93.50;;;;;;5033119;28;20638;-92
2022/01/15 16:02:42;;;;;;;35.47;14.90;;;3.90;93.50;;;;;;5015732;28;20206;-93
2022/01/15 16:05:08;;;;;;;28.43;12.57;;;3.90;93.50;;;;;;5015802;28;20217;-93
2022/01/15 16:07:34;;;;;;;33.30;11.87;;;3.90;93.50;;;;;;5015553;28;20634;-93
2022/01/15 16:10:01;;;;;;;26.90;12.47;;;3.80;93.40;;;;;;5015385;28;20293;-92
2022/01/15 16:12:27;;;;;;;33.13;12.63;;;3.90;93.50;;;;;;5015598;28;20199;-93
2022/01/15 16:14:53;;;;;;;28.20;11.97;;;3.80;93.40;;;;;;5015368;28;20271;-92